sensor_id;sensor_type;location;lat;lon;timestamp;P1;durP1;ratioP1;P2;durP2;ratioP2
23684;SDS011;12020;51.384;6.908;2024-02-16T00:08:09;4.20;;;2.00;;
23684;SDS011;12020;51.384;6.908;2024-02-16T00:39:29;2.90;;;2.20;;
23684;SDS011;12020;51.384;6.908;2024-02-16T00:42:08;3.22;;;1.90;;
23684;SDS011;12020;51.384;6.908;2024-02-16T00:50:15;3.13;;;1.88;;
23684;SDS011;12020;51.384;6.908;2024-02-16T03:46:46;2.22;;;1.70;;
23684;SDS011;12020;51.384;6.908;2024-02-16T03:49:18;3.78;;;1.70;;
23684;SDS011;12020;51.384;6.908;2024-02-16T03:59:51;2.47;;;1.60;;
23684;SDS011;12020;51.384;6.908;2024-02-16T04:02:20;2.53;;;1.85;;
23684;SDS011;12020;51.384;6.908;2024-02-16T04:04:48;3.20;;;1.85;;
23684;SDS011;12020;51.384;6.908;2024-02-16T04:07:26;2.42;;;1.77;;
23684;SDS011;12020;51.384;6.908;2024-02-16T04:22:54;3.25;;;1.85;;
23684;SDS011;12020;51.384;6.908;2024-02-16T04:30:43;3.07;;;1.80;;
23684;SDS011;12020;51.384;6.908;2024-02-16T04:33:15;3.17;;;1.92;;
23684;SDS011;12020;51.384;6.908;2024-02-16T04:35:46;3.70;;;1.77;;
23684;SDS011;12020;51.384;6.908;2024-02-16T04:38:22;3.20;;;1.90;;
23684;SDS011;12020;51.384;6.908;2024-02-16T04:40:50;3.50;;;1.98;;
23684;SDS011;12020;51.384;6.908;2024-02-16T04:46:13;3.05;;;2.08;;
23684;SDS011;12020;51.384;6.908;2024-02-16T04:49:05;2.88;;;1.88;;
23684;SDS011;12020;51.384;6.908;2024-02-16T04:51:37;3.38;;;1.95;;
23684;SDS011;12020;51.384;6.908;2024-02-16T04:54:11;2.67;;;1.73;;
23684;SDS011;12020;51.384;6.908;2024-02-16T05:14:56;4.60;;;2.10;;
23684;SDS011;12020;51.384;6.908;2024-02-16T05:19:56;3.50;;;2.05;;
23684;SDS011;12020;51.384;6.908;2024-02-16T05:24:55;2.90;;;1.95;;
23684;SDS011;12020;51.384;6.908;2024-02-16T05:27:34;2.90;;;1.93;;
23684;SDS011;12020;51.384;6.908;2024-02-16T05:30:03;3.58;;;2.00;;
23684;SDS011;12020;51.384;6.908;2024-02-16T05:32:38;3.47;;;2.15;;
23684;SDS011;12020;51.384;6.908;2024-02-16T05:35:10;2.92;;;2.00;;
23684;SDS011;12020;51.384;6.908;2024-02-16T05:37:47;4.78;;;2.00;;
23684;SDS011;12020;51.384;6.908;2024-02-16T05:40:28;2.97;;;1.90;;
23684;SDS011;12020;51.384;6.908;2024-02-16T05:43:10;3.33;;;2.10;;
23684;SDS011;12020;51.384;6.908;2024-02-16T05:45:36;4.03;;;2.15;;
23684;SDS011;12020;51.384;6.908;2024-02-16T05:48:06;3.10;;;2.00;;
23684;SDS011;12020;51.384;6.908;2024-02-16T05:53:09;2.88;;;1.95;;
23684;SDS011;12020;51.384;6.908;2024-02-16T05:55:35;4.47;;;2.03;;
23684;SDS011;12020;51.384;6.908;2024-02-16T05:58:06;3.20;;;2.00;;
23684;SDS011;12020;51.384;6.908;2024-02-16T06:00:45;3.30;;;2.00;;
23684;SDS011;12020;51.384;6.908;2024-02-16T06:03:18;3.72;;;2.00;;
23684;SDS011;12020;51.384;6.908;2024-02-16T06:05:46;3.15;;;2.00;;
23684;SDS011;12020;51.384;6.908;2024-02-16T06:10:53;3.33;;;2.00;;
23684;SDS011;12020;51.384;6.908;2024-02-16T06:13:23;3.95;;;2.30;;
23684;SDS011;12020;51.384;6.908;2024-02-16T06:15:54;2.60;;;2.05;;
23684;SDS011;12020;51.384;6.908;2024-02-16T06:18:22;3.13;;;1.98;;
23684;SDS011;12020;51.384;6.908;2024-02-16T06:20:54;3.53;;;2.22;;
23684;SDS011;12020;51.384;6.908;2024-02-16T06:25:55;3.58;;;2.25;;
23684;SDS011;12020;51.384;6.908;2024-02-16T06:28:21;3.60;;;2.00;;
23684;SDS011;12020;51.384;6.908;2024-02-16T06:33:39;3.10;;;2.03;;
23684;SDS011;12020;51.384;6.908;2024-02-16T06:36:11;3.33;;;2.00;;
23684;SDS011;12020;51.384;6.908;2024-02-16T06:38:39;3.65;;;2.20;;
23684;SDS011;12020;51.384;6.908;2024-02-16T06:41:06;4.63;;;2.17;;
23684;SDS011;12020;51.384;6.908;2024-02-16T06:43:45;2.60;;;1.90;;
23684;SDS011;12020;51.384;6.908;2024-02-16T06:46:19;2.97;;;2.08;;
23684;SDS011;12020;51.384;6.908;2024-02-16T06:48:58;3.28;;;1.95;;
23684;SDS011;12020;51.384;6.908;2024-02-16T06:51:25;3.45;;;2.20;;
23684;SDS011;12020;51.384;6.908;2024-02-16T06:54:23;3.13;;;2.30;;
23684;SDS011;12020;51.384;6.908;2024-02-16T07:02:50;3.15;;;2.00;;
23684;SDS011;12020;51.384;6.908;2024-02-16T07:05:31;3.53;;;2.13;;
23684;SDS011;12020;51.384;6.908;2024-02-16T07:08:07;4.10;;;2.10;;
23684;SDS011;12020;51.384;6.908;2024-02-16T07:10:43;4.28;;;2.00;;
23684;SDS011;12020;51.384;6.908;2024-02-16T07:13:14;3.20;;;2.10;;
23684;SDS011;12020;51.384;6.908;2024-02-16T07:16:04;2.85;;;2.10;;
23684;SDS011;12020;51.384;6.908;2024-02-16T07:18:41;4.33;;;2.30;;
23684;SDS011;12020;51.384;6.908;2024-02-16T07:21:19;3.83;;;1.97;;
23684;SDS011;12020;51.384;6.908;2024-02-16T07:24:20;3.50;;;1.90;;
23684;SDS011;12020;51.384;6.908;2024-02-16T07:27:19;3.90;;;2.05;;
23684;SDS011;12020;51.384;6.908;2024-02-16T07:29:46;2.50;;;2.30;;
23684;SDS011;12020;51.384;6.908;2024-02-16T07:32:59;2.88;;;2.10;;
23684;SDS011;12020;51.384;6.908;2024-02-16T07:36:09;4.53;;;2.22;;
23684;SDS011;12020;51.384;6.908;2024-02-16T07:39:20;3.28;;;1.98;;
23684;SDS011;12020;51.384;6.908;2024-02-16T07:42:54;4.22;;;2.15;;
23684;SDS011;12020;51.384;6.908;2024-02-16T07:46:51;5.23;;;2.30;;
23684;SDS011;12020;51.384;6.908;2024-02-16T07:50:10;5.17;;;2.60;;
23684;SDS011;12020;51.384;6.908;2024-02-16T07:53:24;3.35;;;2.00;;
23684;SDS011;12020;51.384;6.908;2024-02-16T07:56:26;2.38;;;1.90;;
23684;SDS011;12020;51.384;6.908;2024-02-16T07:59:15;4.28;;;2.28;;
23684;SDS011;12020;51.384;6.908;2024-02-16T08:02:50;2.70;;;2.00;;
23684;SDS011;12020;51.384;6.908;2024-02-16T08:06:04;2.63;;;2.03;;
23684;SDS011;12020;51.384;6.908;2024-02-16T08:08:46;2.70;;;1.97;;
23684;SDS011;12020;51.384;6.908;2024-02-16T08:12:20;3.95;;;2.20;;
23684;SDS011;12020;51.384;6.908;2024-02-16T08:15:12;2.78;;;2.05;;
23684;SDS011;12020;51.384;6.908;2024-02-16T08:18:50;3.92;;;2.10;;
23684;SDS011;12020;51.384;6.908;2024-02-16T08:21:46;4.65;;;2.10;;
23684;SDS011;12020;51.384;6.908;2024-02-16T08:24:33;3.90;;;2.10;;
23684;SDS011;12020;51.384;6.908;2024-02-16T08:26:59;3.10;;;2.10;;
23684;SDS011;12020;51.384;6.908;2024-02-16T08:29:28;4.85;;;2.30;;
23684;SDS011;12020;51.384;6.908;2024-02-16T08:32:26;4.30;;;2.40;;
23684;SDS011;12020;51.384;6.908;2024-02-16T08:35:27;4.10;;;2.17;;
23684;SDS011;12020;51.384;6.908;2024-02-16T08:38:45;3.85;;;2.80;;
23684;SDS011;12020;51.384;6.908;2024-02-16T08:41:33;5.45;;;2.30;;
23684;SDS011;12020;51.384;6.908;2024-02-16T08:44:36;4.38;;;2.50;;
23684;SDS011;12020;51.384;6.908;2024-02-16T08:47:46;3.97;;;2.40;;
23684;SDS011;12020;51.384;6.908;2024-02-16T08:50:19;3.92;;;2.35;;
23684;SDS011;12020;51.384;6.908;2024-02-16T08:53:31;3.53;;;2.20;;
23684;SDS011;12020;51.384;6.908;2024-02-16T08:56:45;5.07;;;2.40;;
23684;SDS011;12020;51.384;6.908;2024-02-16T08:59:46;4.03;;;2.13;;
23684;SDS011;12020;51.384;6.908;2024-02-16T09:03:04;5.00;;;2.50;;
23684;SDS011;12020;51.384;6.908;2024-02-16T09:09:20;4.25;;;2.33;;
23684;SDS011;12020;51.384;6.908;2024-02-16T09:11:51;4.65;;;2.42;;
23684;SDS011;12020;51.384;6.908;2024-02-16T09:15:01;5.35;;;2.60;;
23684;SDS011;12020;51.384;6.908;2024-02-16T09:18:03;4.80;;;2.40;;
23684;SDS011;12020;51.384;6.908;2024-02-16T09:21:00;4.07;;;2.58;;
23684;SDS011;12020;51.384;6.908;2024-02-16T09:23:57;4.15;;;2.33;;
23684;SDS011;12020;51.384;6.908;2024-02-16T09:26:45;4.18;;;2.42;;
23684;SDS011;12020;51.384;6.908;2024-02-16T09:29:54;4.28;;;2.67;;
23684;SDS011;12020;51.384;6.908;2024-02-16T09:32:30;4.07;;;2.30;;
23684;SDS011;12020;51.384;6.908;2024-02-16T09:39:14;4.47;;;2.30;;
23684;SDS011;12020;51.384;6.908;2024-02-16T09:42:05;3.80;;;2.50;;
23684;SDS011;12020;51.384;6.908;2024-02-16T09:44:43;5.22;;;2.50;;
23684;SDS011;12020;51.384;6.908;2024-02-16T09:47:37;5.95;;;2.70;;
23684;SDS011;12020;51.384;6.908;2024-02-16T09:50:38;5.80;;;2.72;;
23684;SDS011;12020;51.384;6.908;2024-02-16T09:53:50;4.53;;;2.45;;
23684;SDS011;12020;51.384;6.908;2024-02-16T09:57:24;3.65;;;2.50;;
23684;SDS011;12020;51.384;6.908;2024-02-16T10:00:36;4.07;;;2.40;;
23684;SDS011;12020;51.384;6.908;2024-02-16T10:03:52;4.55;;;2.60;;
23684;SDS011;12020;51.384;6.908;2024-02-16T10:06:47;4.23;;;2.70;;
23684;SDS011;12020;51.384;6.908;2024-02-16T10:09:27;5.35;;;2.78;;
23684;SDS011;12020;51.384;6.908;2024-02-16T10:12:32;5.80;;;2.50;;
23684;SDS011;12020;51.384;6.908;2024-02-16T10:15:38;3.88;;;2.50;;
23684;SDS011;12020;51.384;6.908;2024-02-16T10:18:50;5.65;;;2.90;;
23684;SDS011;12020;51.384;6.908;2024-02-16T10:22:08;5.60;;;2.63;;
23684;SDS011;12020;51.384;6.908;2024-02-16T10:25:07;4.45;;;2.67;;
23684;SDS011;12020;51.384;6.908;2024-02-16T10:28:09;6.10;;;2.60;;
23684;SDS011;12020;51.384;6.908;2024-02-16T10:31:16;5.80;;;2.85;;
23684;SDS011;12020;51.384;6.908;2024-02-16T10:34:06;4.20;;;2.53;;
23684;SDS011;12020;51.384;6.908;2024-02-16T10:37:16;5.68;;;2.90;;
23684;SDS011;12020;51.384;6.908;2024-02-16T10:40:22;5.65;;;2.70;;
23684;SDS011;12020;51.384;6.908;2024-02-16T10:42:57;5.50;;;2.67;;
23684;SDS011;12020;51.384;6.908;2024-02-16T10:45:55;5.35;;;2.67;;
23684;SDS011;12020;51.384;6.908;2024-02-16T10:49:24;5.38;;;2.60;;
23684;SDS011;12020;51.384;6.908;2024-02-16T10:52:10;5.30;;;2.90;;
23684;SDS011;12020;51.384;6.908;2024-02-16T10:54:56;4.65;;;2.90;;
23684;SDS011;12020;51.384;6.908;2024-02-16T10:58:02;5.93;;;2.80;;
23684;SDS011;12020;51.384;6.908;2024-02-16T11:01:09;4.40;;;2.85;;
23684;SDS011;12020;51.384;6.908;2024-02-16T11:07:59;4.88;;;2.78;;
23684;SDS011;12020;51.384;6.908;2024-02-16T11:11:10;4.50;;;2.80;;
23684;SDS011;12020;51.384;6.908;2024-02-16T11:14:41;6.25;;;3.28;;
23684;SDS011;12020;51.384;6.908;2024-02-16T11:17:55;5.97;;;2.75;;
23684;SDS011;12020;51.384;6.908;2024-02-16T11:20:37;5.70;;;2.90;;
23684;SDS011;12020;51.384;6.908;2024-02-16T11:23:53;6.00;;;2.80;;
23684;SDS011;12020;51.384;6.908;2024-02-16T11:26:49;4.97;;;3.15;;
23684;SDS011;12020;51.384;6.908;2024-02-16T11:29:34;5.13;;;2.72;;
23684;SDS011;12020;51.384;6.908;2024-02-16T11:32:20;5.28;;;3.03;;
23684;SDS011;12020;51.384;6.908;2024-02-16T11:35:16;5.55;;;2.88;;
23684;SDS011;12020;51.384;6.908;2024-02-16T11:38:42;6.68;;;2.88;;
23684;SDS011;12020;51.384;6.908;2024-02-16T11:42:09;6.28;;;3.08;;
23684;SDS011;12020;51.384;6.908;2024-02-16T11:45:33;4.80;;;3.30;;
23684;SDS011;12020;51.384;6.908;2024-02-16T11:48:46;6.20;;;3.10;;
23684;SDS011;12020;51.384;6.908;2024-02-16T11:52:16;7.78;;;3.60;;
23684;SDS011;12020;51.384;6.908;2024-02-16T11:54:50;6.15;;;3.40;;
23684;SDS011;12020;51.384;6.908;2024-02-16T11:57:28;5.83;;;3.30;;
23684;SDS011;12020;51.384;6.908;2024-02-16T12:03:04;5.25;;;3.30;;
23684;SDS011;12020;51.384;6.908;2024-02-16T12:06:21;7.38;;;3.70;;
23684;SDS011;12020;51.384;6.908;2024-02-16T12:09:23;6.60;;;3.70;;
23684;SDS011;12020;51.384;6.908;2024-02-16T12:12:41;7.13;;;3.67;;
23684;SDS011;12020;51.384;6.908;2024-02-16T12:15:43;7.38;;;3.97;;
23684;SDS011;12020;51.384;6.908;2024-02-16T12:18:26;7.63;;;4.03;;
23684;SDS011;12020;51.384;6.908;2024-02-16T12:21:00;6.78;;;3.90;;
23684;SDS011;12020;51.384;6.908;2024-02-16T12:23:48;7.60;;;4.10;;
23684;SDS011;12020;51.384;6.908;2024-02-16T12:26:20;8.10;;;4.10;;
23684;SDS011;12020;51.384;6.908;2024-02-16T12:29:30;6.18;;;3.85;;
23684;SDS011;12020;51.384;6.908;2024-02-16T12:32:22;5.80;;;4.13;;
23684;SDS011;12020;51.384;6.908;2024-02-16T12:34:49;8.80;;;4.60;;
23684;SDS011;12020;51.384;6.908;2024-02-16T12:37:19;7.57;;;4.72;;
23684;SDS011;12020;51.384;6.908;2024-02-16T12:39:57;7.43;;;4.63;;
23684;SDS011;12020;51.384;6.908;2024-02-16T12:42:32;7.75;;;5.03;;
23684;SDS011;12020;51.384;6.908;2024-02-16T12:45:28;8.45;;;4.85;;
23684;SDS011;12020;51.384;6.908;2024-02-16T12:48:06;8.02;;;4.70;;
23684;SDS011;12020;51.384;6.908;2024-02-16T12:50:32;9.65;;;4.80;;
23684;SDS011;12020;51.384;6.908;2024-02-16T12:53:00;9.18;;;4.68;;
23684;SDS011;12020;51.384;6.908;2024-02-16T12:59:09;9.55;;;5.45;;
23684;SDS011;12020;51.384;6.908;2024-02-16T13:01:36;8.32;;;4.80;;
23684;SDS011;12020;51.384;6.908;2024-02-16T13:04:05;8.18;;;5.38;;
23684;SDS011;12020;51.384;6.908;2024-02-16T13:12:25;10.30;;;5.32;;
23684;SDS011;12020;51.384;6.908;2024-02-16T13:15:42;7.47;;;5.25;;
23684;SDS011;12020;51.384;6.908;2024-02-16T13:19:19;8.68;;;5.65;;
23684;SDS011;12020;51.384;6.908;2024-02-16T13:22:36;6.03;;;5.40;;
23684;SDS011;12020;51.384;6.908;2024-02-16T13:25:44;8.63;;;5.82;;
23684;SDS011;12020;51.384;6.908;2024-02-16T13:28:43;7.25;;;4.18;;
23684;SDS011;12020;51.384;6.908;2024-02-16T13:33:39;6.72;;;5.00;;
23684;SDS011;12020;51.384;6.908;2024-02-16T13:36:20;8.20;;;4.45;;
23684;SDS011;12020;51.384;6.908;2024-02-16T13:38:46;7.28;;;5.13;;
23684;SDS011;12020;51.384;6.908;2024-02-16T13:43:52;6.60;;;4.00;;
23684;SDS011;12020;51.384;6.908;2024-02-16T13:49:47;7.50;;;5.90;;
23684;SDS011;12020;51.384;6.908;2024-02-16T14:59:30;12.23;;;11.13;;
23684;SDS011;12020;51.384;6.908;2024-02-16T15:02:01;12.98;;;11.63;;
23684;SDS011;12020;51.384;6.908;2024-02-16T15:08:09;11.32;;;9.98;;
23684;SDS011;12020;51.384;6.908;2024-02-16T15:14:06;9.93;;;8.18;;
23684;SDS011;12020;51.384;6.908;2024-02-16T15:16:34;8.30;;;7.50;;
23684;SDS011;12020;51.384;6.908;2024-02-16T15:25:44;7.70;;;6.93;;
23684;SDS011;12020;51.384;6.908;2024-02-16T15:28:12;8.27;;;7.47;;
23684;SDS011;12020;51.384;6.908;2024-02-16T15:30:42;8.48;;;7.68;;
23684;SDS011;12020;51.384;6.908;2024-02-16T15:33:28;8.00;;;7.30;;
23684;SDS011;12020;51.384;6.908;2024-02-16T15:50:50;9.60;;;8.80;;
23684;SDS011;12020;51.384;6.908;2024-02-16T15:53:17;9.23;;;8.43;;
23684;SDS011;12020;51.384;6.908;2024-02-16T15:55:44;10.77;;;9.68;;
23684;SDS011;12020;51.384;6.908;2024-02-16T15:58:11;10.37;;;9.40;;
23684;SDS011;12020;51.384;6.908;2024-02-16T16:00:38;10.43;;;9.43;;
23684;SDS011;12020;51.384;6.908;2024-02-16T16:03:05;10.77;;;9.68;;
23684;SDS011;12020;51.384;6.908;2024-02-16T16:05:36;10.50;;;9.50;;
23684;SDS011;12020;51.384;6.908;2024-02-16T16:08:03;11.07;;;10.00;;
23684;SDS011;12020;51.384;6.908;2024-02-16T16:10:57;10.40;;;9.40;;
23684;SDS011;12020;51.384;6.908;2024-02-16T16:13:42;10.38;;;9.45;;
23684;SDS011;12020;51.384;6.908;2024-02-16T16:16:40;9.02;;;8.23;;
23684;SDS011;12020;51.384;6.908;2024-02-16T16:19:06;9.83;;;8.93;;
23684;SDS011;12020;51.384;6.908;2024-02-16T16:21:43;9.50;;;8.70;;
23684;SDS011;12020;51.384;6.908;2024-02-16T16:24:32;8.80;;;8.00;;
23684;SDS011;12020;51.384;6.908;2024-02-16T16:27:38;8.60;;;7.80;;
23684;SDS011;12020;51.384;6.908;2024-02-16T16:30:05;8.23;;;7.53;;
23684;SDS011;12020;51.384;6.908;2024-02-16T16:32:33;8.13;;;7.43;;
23684;SDS011;12020;51.384;6.908;2024-02-16T16:35:02;5.43;;;4.93;;
23684;SDS011;12020;51.384;6.908;2024-02-16T16:41:09;9.13;;;8.30;;
23684;SDS011;12020;51.384;6.908;2024-02-16T16:44:01;9.23;;;8.43;;
23684;SDS011;12020;51.384;6.908;2024-02-16T16:52:43;10.73;;;9.82;;
23684;SDS011;12020;51.384;6.908;2024-02-16T16:55:10;11.20;;;10.20;;
23684;SDS011;12020;51.384;6.908;2024-02-16T17:07:21;10.80;;;9.80;;
23684;SDS011;12020;51.384;6.908;2024-02-16T17:09:48;11.68;;;10.57;;
23684;SDS011;12020;51.384;6.908;2024-02-16T17:19:02;10.77;;;9.68;;
23684;SDS011;12020;51.384;6.908;2024-02-16T17:24:04;9.50;;;8.65;;
23684;SDS011;12020;51.384;6.908;2024-02-16T17:26:31;8.10;;;7.35;;
23684;SDS011;12020;51.384;6.908;2024-02-16T17:32:03;6.50;;;6.00;;
23684;SDS011;12020;51.384;6.908;2024-02-16T17:34:30;6.68;;;6.07;;
23684;SDS011;12020;51.384;6.908;2024-02-16T17:36:57;6.45;;;5.95;;
23684;SDS011;12020;51.384;6.908;2024-02-16T17:42:19;7.40;;;6.70;;
23684;SDS011;12020;51.384;6.908;2024-02-16T17:51:09;7.63;;;7.03;;
23684;SDS011;12020;51.384;6.908;2024-02-16T17:53:35;8.30;;;7.53;;
23684;SDS011;12020;51.384;6.908;2024-02-16T17:56:02;7.90;;;7.20;;
23684;SDS011;12020;51.384;6.908;2024-02-16T17:58:30;11.02;;;10.07;;
23684;SDS011;12020;51.384;6.908;2024-02-16T18:07:00;10.07;;;9.20;;
23684;SDS011;12020;51.384;6.908;2024-02-16T18:09:25;11.20;;;10.10;;
23684;SDS011;12020;51.384;6.908;2024-02-16T18:11:54;11.48;;;10.40;;
23684;SDS011;12020;51.384;6.908;2024-02-16T18:14:21;10.20;;;9.30;;
23684;SDS011;12020;51.384;6.908;2024-02-16T18:16:47;10.10;;;9.20;;
23684;SDS011;12020;51.384;6.908;2024-02-16T18:19:14;9.80;;;8.90;;
23684;SDS011;12020;51.384;6.908;2024-02-16T18:21:40;7.97;;;7.20;;
23684;SDS011;12020;51.384;6.908;2024-02-16T18:24:09;7.60;;;7.00;;
23684;SDS011;12020;51.384;6.908;2024-02-16T18:27:01;7.70;;;6.90;;
23684;SDS011;12020;51.384;6.908;2024-02-16T18:29:30;7.85;;;7.15;;
23684;SDS011;12020;51.384;6.908;2024-02-16T18:31:56;7.50;;;6.90;;
23684;SDS011;12020;51.384;6.908;2024-02-16T18:34:27;7.33;;;6.70;;
23684;SDS011;12020;51.384;6.908;2024-02-16T18:37:04;7.38;;;6.68;;
23684;SDS011;12020;51.384;6.908;2024-02-16T18:39:38;8.88;;;7.80;;
23684;SDS011;12020;51.384;6.908;2024-02-16T18:42:30;9.40;;;8.55;;
23684;SDS011;12020;51.384;6.908;2024-02-16T18:44:59;9.90;;;9.00;;
23684;SDS011;12020;51.384;6.908;2024-02-16T18:47:35;12.02;;;11.02;;
23684;SDS011;12020;51.384;6.908;2024-02-16T18:50:03;13.38;;;12.18;;
23684;SDS011;12020;51.384;6.908;2024-02-16T18:52:39;13.70;;;12.50;;
23684;SDS011;12020;51.384;6.908;2024-02-16T18:55:20;15.43;;;14.02;;
23684;SDS011;12020;51.384;6.908;2024-02-16T18:58:11;15.23;;;13.90;;
23684;SDS011;12020;51.384;6.908;2024-02-16T19:00:39;15.52;;;14.18;;
23684;SDS011;12020;51.384;6.908;2024-02-16T19:03:13;15.48;;;14.18;;
23684;SDS011;12020;51.384;6.908;2024-02-16T19:05:41;15.20;;;13.90;;
23684;SDS011;12020;51.384;6.908;2024-02-16T19:08:33;15.40;;;14.10;;
23684;SDS011;12020;51.384;6.908;2024-02-16T19:11:43;15.48;;;14.13;;
23684;SDS011;12020;51.384;6.908;2024-02-16T19:14:13;15.13;;;13.82;;
23684;SDS011;12020;51.384;6.908;2024-02-16T19:16:42;14.73;;;13.43;;
23684;SDS011;12020;51.384;6.908;2024-02-16T19:19:47;15.52;;;14.13;;
23684;SDS011;12020;51.384;6.908;2024-02-16T19:22:12;14.85;;;13.45;;
23684;SDS011;12020;51.384;6.908;2024-02-16T19:24:39;14.53;;;13.33;;
23684;SDS011;12020;51.384;6.908;2024-02-16T19:29:47;14.48;;;13.07;;
23684;SDS011;12020;51.384;6.908;2024-02-16T19:32:16;13.82;;;12.63;;
23684;SDS011;12020;51.384;6.908;2024-02-16T19:34:45;14.43;;;13.02;;
23684;SDS011;12020;51.384;6.908;2024-02-16T19:37:12;13.82;;;12.70;;
23684;SDS011;12020;51.384;6.908;2024-02-16T19:40:05;14.20;;;12.95;;
23684;SDS011;12020;51.384;6.908;2024-02-16T19:42:42;14.47;;;13.17;;
23684;SDS011;12020;51.384;6.908;2024-02-16T19:45:45;14.30;;;13.07;;
23684;SDS011;12020;51.384;6.908;2024-02-16T19:48:37;14.00;;;12.70;;
23684;SDS011;12020;51.384;6.908;2024-02-16T20:01:45;18.10;;;16.50;;
23684;SDS011;12020;51.384;6.908;2024-02-16T20:06:41;19.60;;;17.80;;
23684;SDS011;12020;51.384;6.908;2024-02-16T20:09:08;20.05;;;18.15;;
23684;SDS011;12020;51.384;6.908;2024-02-16T20:11:34;20.42;;;18.60;;
23684;SDS011;12020;51.384;6.908;2024-02-16T20:14:01;21.50;;;19.50;;
23684;SDS011;12020;51.384;6.908;2024-02-16T20:16:31;23.35;;;21.13;;
23684;SDS011;12020;51.384;6.908;2024-02-16T20:19:00;23.48;;;21.27;;
23684;SDS011;12020;51.384;6.908;2024-02-16T20:21:26;24.25;;;21.95;;
23684;SDS011;12020;51.384;6.908;2024-02-16T20:23:53;24.30;;;21.90;;
23684;SDS011;12020;51.384;6.908;2024-02-16T20:26:26;24.00;;;21.70;;
23684;SDS011;12020;51.384;6.908;2024-02-16T20:28:53;24.52;;;22.13;;
23684;SDS011;12020;51.384;6.908;2024-02-16T20:31:19;24.00;;;21.63;;
23684;SDS011;12020;51.384;6.908;2024-02-16T20:36:36;24.20;;;21.90;;
23684;SDS011;12020;51.384;6.908;2024-02-16T20:39:05;24.58;;;22.08;;
23684;SDS011;12020;51.384;6.908;2024-02-16T20:41:33;24.17;;;21.77;;
23684;SDS011;12020;51.384;6.908;2024-02-16T20:44:15;24.65;;;22.20;;
23684;SDS011;12020;51.384;6.908;2024-02-16T20:47:06;25.30;;;22.83;;
23684;SDS011;12020;51.384;6.908;2024-02-16T20:49:42;25.10;;;22.67;;
23684;SDS011;12020;51.384;6.908;2024-02-16T20:52:09;25.33;;;22.93;;
23684;SDS011;12020;51.384;6.908;2024-02-16T20:54:34;25.55;;;22.95;;
23684;SDS011;12020;51.384;6.908;2024-02-16T20:57:03;25.30;;;22.80;;
23684;SDS011;12020;51.384;6.908;2024-02-16T20:59:33;25.95;;;23.30;;
23684;SDS011;12020;51.384;6.908;2024-02-16T21:01:59;25.05;;;22.50;;
23684;SDS011;12020;51.384;6.908;2024-02-16T21:04:33;25.05;;;22.63;;
23684;SDS011;12020;51.384;6.908;2024-02-16T21:07:02;24.77;;;22.30;;
23684;SDS011;12020;51.384;6.908;2024-02-16T21:09:30;24.88;;;22.38;;
23684;SDS011;12020;51.384;6.908;2024-02-16T21:12:00;24.15;;;21.85;;
23684;SDS011;12020;51.384;6.908;2024-02-16T21:14:28;24.77;;;22.38;;
23684;SDS011;12020;51.384;6.908;2024-02-16T21:16:54;24.20;;;21.90;;
23684;SDS011;12020;51.384;6.908;2024-02-16T21:19:22;23.63;;;21.33;;
23684;SDS011;12020;51.384;6.908;2024-02-16T21:21:58;23.85;;;21.55;;
23684;SDS011;12020;51.384;6.908;2024-02-16T21:24:28;23.60;;;21.25;;
23684;SDS011;12020;51.384;6.908;2024-02-16T21:26:56;23.33;;;21.02;;
23684;SDS011;12020;51.384;6.908;2024-02-16T21:29:23;23.23;;;20.77;;
23684;SDS011;12020;51.384;6.908;2024-02-16T21:31:48;22.97;;;20.60;;
23684;SDS011;12020;51.384;6.908;2024-02-16T21:34:14;22.37;;;20.17;;
23684;SDS011;12020;51.384;6.908;2024-02-16T21:36:51;22.52;;;20.33;;
23684;SDS011;12020;51.384;6.908;2024-02-16T21:39:23;22.05;;;19.85;;
23684;SDS011;12020;51.384;6.908;2024-02-16T21:41:51;22.40;;;20.10;;
23684;SDS011;12020;51.384;6.908;2024-02-16T21:44:19;22.65;;;20.42;;
23684;SDS011;12020;51.384;6.908;2024-02-16T21:46:48;21.63;;;19.52;;
23684;SDS011;12020;51.384;6.908;2024-02-16T21:49:14;21.63;;;19.42;;
23684;SDS011;12020;51.384;6.908;2024-02-16T21:51:49;21.95;;;19.77;;
23684;SDS011;12020;51.384;6.908;2024-02-16T21:54:16;22.65;;;20.38;;
23684;SDS011;12020;51.384;6.908;2024-02-16T21:56:44;22.13;;;19.97;;
23684;SDS011;12020;51.384;6.908;2024-02-16T21:59:11;21.95;;;19.75;;
23684;SDS011;12020;51.384;6.908;2024-02-16T22:04:22;25.20;;;22.60;;
23684;SDS011;12020;51.384;6.908;2024-02-16T22:06:53;19.85;;;17.45;;
